Time;durP1;ratioP1;P1;durP2;ratioP2;P2;SDS_P1;SDS_P2;PMS_P1;PMS_P2;Temp;Humidity;BMP_temperature;BMP_pressure;BME280_temperature;BME280_humidity;BME280_pressure;Samples;Min_cycle;Max_cycle;Signal;HPM_P1;HPM_P2
2022/01/31 00:00:14;;;;;;;88.75;49.58;;;2.30;99.90;;;;;;4992870;28;20427;-74
2022/01/31 00:02:44;;;;;;;83.55;46.38;;;2.30;99.90;;;;;;4992722;28;20429;-76
2022/01/31 00:05:11;;;;;;;78.97;45.67;;;2.20;99.90;;;;;;4992392;28;20053;-74
2022/01/31 00:07:39;;;;;;;88.38;48.03;;;2.30;99.90;;;;;;4992378;28;20489;-77
2022/01/31 00:10:10;;;;;;;82.25;48.35;;;2.20;99.90;;;;;;4992780;28;20057;-77
2022/01/31 00:12:52;;;;;;;82.00;46.30;;;2.30;99.90;;;;;;4991054;28;20042;-78
2022/01/31 00:15:19;;;;;;;86.50;46.47;;;2.20;99.90;;;;;;4992403;28;20101;-78
2022/01/31 00:17:46;;;;;;;93.07;50.13;;;2.30;99.90;;;;;;4992027;28;20038;-72
2022/01/31 00:20:14;;;;;;;104.50;53.05;;;2.20;99.90;;;;;;4992398;28;20042;-76
2022/01/31 00:22:41;;;;;;;100.97;52.58;;;1.90;99.90;;;;;;4992344;28;20045;-75
2022/01/31 00:25:08;;;;;;;95.47;52.60;;;1.70;99.90;;;;;;4991939;28;20089;-83
2022/01/31 00:27:36;;;;;;;90.40;48.75;;;1.60;99.90;;;;;;4992331;28;20397;-77
2022/01/31 00:30:05;;;;;;;92.30;46.53;;;1.60;99.90;;;;;;4992492;28;20409;-80
2022/01/31 00:32:32;;;;;;;68.45;41.13;;;1.60;99.90;;;;;;4992318;28;20038;-76
2022/01/31 00:34:59;;;;;;;66.00;37.08;;;1.80;99.90;;;;;;4992053;28;20042;-84
2022/01/31 00:37:26;;;;;;;72.90;41.72;;;2.10;99.90;;;;;;4975405;28;20050;-77
2022/01/31 00:39:54;;;;;;;64.50;39.58;;;1.80;99.90;;;;;;4992346;28;20042;-78
2022/01/31 00:42:23;;;;;;;65.22;37.05;;;1.80;99.90;;;;;;4991735;28;20042;-76
2022/01/31 00:44:54;;;;;;;76.60;39.30;;;1.80;99.90;;;;;;4992107;28;20401;-77
2022/01/31 00:47:24;;;;;;;91.63;46.25;;;1.90;99.90;;;;;;4992043;28;20072;-80
2022/01/31 00:50:08;;;;;;;94.40;50.72;;;2.10;99.90;;;;;;4992083;28;20045;-79
2022/01/31 00:52:37;;;;;;;164.63;80.20;;;2.20;99.90;;;;;;4991628;28;20053;-77
2022/01/31 00:55:06;;;;;;;71.63;43.20;;;2.20;99.90;;;;;;4991936;28;20088;-78
2022/01/31 00:57:33;;;;;;;65.22;38.60;;;2.10;99.90;;;;;;4992005;28;20669;-77
2022/01/31 01:00:00;;;;;;;63.53;36.13;;;2.10;99.90;;;;;;4992064;28;20397;-80
2022/01/31 01:02:30;;;;;;;63.85;35.63;;;2.10;99.90;;;;;;4992106;28;20046;-77
2022/01/31 01:04:57;;;;;;;66.72;37.40;;;1.90;99.90;;;;;;4992034;28;20042;-78
2022/01/31 01:07:24;;;;;;;66.85;40.08;;;1.90;99.90;;;;;;4992020;28;20398;-78
2022/01/31 01:09:52;;;;;;;65.65;40.78;;;1.80;99.90;;;;;;4992377;28;20381;-78
2022/01/31 01:12:19;;;;;;;73.57;43.25;;;1.90;99.90;;;;;;4991602;28;20046;-75
2022/01/31 01:14:48;;;;;;;70.43;40.30;;;1.70;99.90;;;;;;4991713;28;20065;-78
2022/01/31 01:17:16;;;;;;;67.13;40.30;;;1.80;99.90;;;;;;4991985;28;20498;-80
2022/01/31 01:19:44;;;;;;;75.38;41.45;;;1.80;99.90;;;;;;4991939;28;20053;-80
2022/01/31 01:22:12;;;;;;;70.75;39.75;;;1.80;99.90;;;;;;4991692;28;20042;-78
2022/01/31 01:24:40;;;;;;;72.47;41.08;;;1.70;99.90;;;;;;4991881;28;20501;-79
2022/01/31 01:27:09;;;;;;;69.28;40.20;;;1.80;99.90;;;;;;4991991;28;20054;-75
2022/01/31 01:29:36;;;;;;;76.88;38.92;;;1.70;99.90;;;;;;4991425;28;20049;-79
2022/01/31 01:32:04;;;;;;;75.47;42.55;;;1.90;99.90;;;;;;4991682;28;20050;-76
2022/01/31 01:34:33;;;;;;;75.85;42.05;;;1.80;99.90;;;;;;4991585;28;20044;-80
2022/01/31 01:37:01;;;;;;;70.68;40.55;;;1.90;99.90;;;;;;4975046;28;20494;-79
2022/01/31 01:39:28;;;;;;;79.80;42.47;;;1.90;99.90;;;;;;4995717;28;20394;-78
2022/01/31 01:41:56;;;;;;;70.43;39.50;;;1.80;99.90;;;;;;4995204;28;20051;-80
2022/01/31 01:44:50;;;;;;;47.08;26.80;;;1.60;99.90;;;;;;4995398;28;20046;-73
2022/01/31 01:47:20;;;;;;;60.92;34.75;;;2.30;99.90;;;;;;4997096;28;20042;-84
2022/01/31 01:49:49;;;;;;;28.05;17.67;;;2.40;99.90;;;;;;4996168;28;20393;-75
2022/01/31 01:52:18;;;;;;;62.70;35.00;;;2.80;99.90;;;;;;4997428;28;20439;-76
2022/01/31 01:54:47;;;;;;;64.18;35.30;;;2.60;99.90;;;;;;4996730;28;20042;-82
2022/01/31 01:57:16;;;;;;;70.32;35.67;;;2.40;99.90;;;;;;4997161;28;20057;-88
2022/01/31 01:59:43;;;;;;;32.33;20.52;;;2.30;99.90;;;;;;4998851;28;20129;-87
2022/01/31 02:02:11;;;;;;;61.25;33.42;;;2.80;99.90;;;;;;4999112;28;20046;-88
2022/01/31 02:04:38;;;;;;;63.60;36.08;;;2.80;99.90;;;;;;4998273;28;20052;-83
2022/01/31 02:07:05;;;;;;;66.57;38.55;;;2.50;99.90;;;;;;4997041;28;20045;-88
2022/01/31 02:09:41;;;;;;;65.43;34.70;;;2.30;99.90;;;;;;4980588;28;20509;-77
2022/01/31 02:12:09;;;;;;;73.35;38.00;;;2.20;99.90;;;;;;4999589;28;20052;-90
2022/01/31 02:14:37;;;;;;;73.00;39.45;;;2.10;99.90;;;;;;4980417;28;20038;-84
2022/01/31 02:17:04;;;;;;;64.65;39.95;;;1.90;99.90;;;;;;4996517;28;20390;-81
2022/01/31 02:19:32;;;;;;;79.20;43.22;;;1.80;99.90;;;;;;4995652;28;20046;-83
2022/01/31 02:22:00;;;;;;;70.25;40.83;;;1.60;99.90;;;;;;4994908;28;20046;-81
2022/01/31 02:24:28;;;;;;;75.22;39.75;;;1.50;99.90;;;;;;4996799;28;20042;-79
2022/01/31 02:26:55;;;;;;;68.57;38.38;;;1.40;99.90;;;;;;4996615;28;20422;-89
2022/01/31 02:29:22;;;;;;;42.42;28.40;;;1.50;99.90;;;;;;4995844;28;20042;-83
2022/01/31 02:31:50;;;;;;;65.50;31.83;;;1.50;99.90;;;;;;4996439;28;20038;-78
2022/01/31 02:34:18;;;;;;;31.25;20.55;;;1.60;99.90;;;;;;4995864;28;20054;-85
2022/01/31 02:36:45;;;;;;;53.38;32.65;;;2.80;99.90;;;;;;4995611;28;20046;-86
2022/01/31 02:39:13;;;;;;;60.47;36.50;;;2.20;99.90;;;;;;4995633;28;20050;-86
2022/01/31 02:41:42;;;;;;;60.15;35.17;;;2.00;99.90;;;;;;4995257;28;20056;-83
2022/01/31 02:44:15;;;;;;;60.35;35.47;;;1.70;99.90;;;;;;4995899;28;20375;-82
2022/01/31 02:46:54;;;;;;;58.78;34.17;;;1.50;99.90;;;;;;4995350;28;20050;-88
2022/01/31 02:49:27;;;;;;;56.30;34.50;;;1.30;99.90;;;;;;4995687;28;20040;-86
2022/01/31 02:51:59;;;;;;;57.38;34.42;;;1.30;99.90;;;;;;4992032;28;20074;-77
2022/01/31 02:54:29;;;;;;;48.72;29.13;;;1.40;99.90;;;;;;4996005;28;20042;-85
2022/01/31 02:56:56;;;;;;;56.25;32.85;;;1.60;99.90;;;;;;4994880;28;20061;-81
2022/01/31 02:59:23;;;;;;;56.13;33.70;;;1.70;99.90;;;;;;4996527;28;20054;-79
2022/01/31 03:01:51;;;;;;;60.40;35.88;;;1.50;99.90;;;;;;4994172;28;20039;-82
2022/01/31 03:04:18;;;;;;;71.15;37.35;;;1.40;99.90;;;;;;4995327;28;20050;-77
2022/01/31 03:06:49;;;;;;;54.08;33.33;;;1.20;99.90;;;;;;4994216;28;20038;-86
2022/01/31 03:09:17;;;;;;;69.50;35.35;;;1.20;99.90;;;;;;4995815;28;20052;-87
2022/01/31 03:11:46;;;;;;;56.25;33.72;;;1.40;99.90;;;;;;4995636;28;20053;-87
2022/01/31 03:14:16;;;;;;;60.65;34.60;;;1.40;99.90;;;;;;4996830;28;20047;-86
2022/01/31 03:16:44;;;;;;;53.10;31.75;;;1.40;99.90;;;;;;4996580;28;20050;-87
2022/01/31 03:19:13;;;;;;;53.88;31.23;;;1.50;99.90;;;;;;4997117;28;20046;-87
2022/01/31 03:21:41;;;;;;;56.22;33.40;;;1.40;99.90;;;;;;4996818;28;20042;-88
2022/01/31 03:24:10;;;;;;;41.40;28.55;;;1.40;99.90;;;;;;4996564;28;20043;-86
2022/01/31 03:26:38;;;;;;;49.10;28.17;;;1.50;99.90;;;;;;4995420;28;20440;-85
2022/01/31 03:29:06;;;;;;;48.58;29.85;;;1.40;99.90;;;;;;4994731;28;20038;-84
2022/01/31 03:31:34;;;;;;;40.92;22.30;;;1.50;99.90;;;;;;4993783;28;20038;-81
2022/01/31 03:34:02;;;;;;;47.75;28.13;;;1.70;99.90;;;;;;4993668;28;20535;-76
2022/01/31 03:36:29;;;;;;;54.67;31.50;;;1.80;99.90;;;;;;4993710;28;20045;-80
2022/01/31 03:38:56;;;;;;;50.33;31.15;;;1.60;99.90;;;;;;4994014;28;20062;-83
2022/01/31 03:41:25;;;;;;;46.75;28.67;;;1.50;99.90;;;;;;4995142;28;20046;-77
2022/01/31 03:43:52;;;;;;;48.53;28.25;;;1.70;99.90;;;;;;4995711;28;20402;-84
2022/01/31 03:46:20;;;;;;;53.33;30.40;;;1.70;99.90;;;;;;4996103;28;20770;-89
2022/01/31 03:48:48;;;;;;;49.97;29.55;;;1.40;99.90;;;;;;4979195;28;20050;-91
2022/01/31 03:51:15;;;;;;;35.88;19.75;;;1.60;99.90;;;;;;4995102;28;20466;-84
2022/01/31 03:53:43;;;;;;;18.60;14.18;;;1.60;99.90;;;;;;4993260;28;20121;-80
2022/01/31 03:56:10;;;;;;;32.45;19.05;;;2.00;99.90;;;;;;4993197;28;20371;-78
2022/01/31 03:58:38;;;;;;;43.75;26.65;;;2.30;99.90;;;;;;4992777;28;20087;-82
2022/01/31 04:01:05;;;;;;;43.10;27.50;;;2.30;99.90;;;;;;4992733;28;20035;-84
2022/01/31 04:03:34;;;;;;;57.30;31.50;;;2.10;99.90;;;;;;4997168;28;20054;-79
2022/01/31 04:06:02;;;;;;;63.42;33.85;;;1.90;99.90;;;;;;4994076;28;20062;-81
2022/01/31 04:08:29;;;;;;;70.65;38.90;;;1.70;99.90;;;;;;4994572;28;20490;-85
2022/01/31 04:10:57;;;;;;;65.28;33.65;;;1.70;99.90;;;;;;4995851;28;20058;-81
2022/01/31 04:13:26;;;;;;;77.88;40.28;;;1.60;99.90;;;;;;4996573;28;20048;-85
2022/01/31 04:15:53;;;;;;;85.60;41.10;;;1.70;99.90;;;;;;4996636;28;20050;-92
2022/01/31 04:18:21;;;;;;;106.07;52.25;;;1.60;99.90;;;;;;4997120;28;20120;-89
2022/01/31 04:20:48;;;;;;;50.83;29.55;;;1.40;99.90;;;;;;4996543;28;20050;-90
2022/01/31 04:23:18;;;;;;;28.85;17.05;;;1.70;99.90;;;;;;4997007;28;20057;-92
2022/01/31 04:25:51;;;;;;;18.83;11.95;;;2.20;99.90;;;;;;4997746;28;20045;-83
2022/01/31 04:28:30;;;;;;;19.67;12.30;;;2.80;99.90;;;;;;4992011;28;20038;-83
2022/01/31 04:31:11;;;;;;;74.38;37.38;;;3.00;99.90;;;;;;4992581;28;20078;-80
2022/01/31 04:33:39;;;;;;;;;;;2.20;99.90;;;;;;4993131;28;20042;-80
2022/01/31 04:36:06;;;;;;;53.13;28.38;;;2.20;99.90;;;;;;4992741;28;20372;-87
2022/01/31 04:38:34;;;;;;;27.35;17.98;;;1.80;99.90;;;;;;4994341;28;20045;-83
2022/01/31 04:41:02;;;;;;;47.47;26.65;;;2.40;99.90;;;;;;4975326;28;20524;-76
2022/01/31 04:43:29;;;;;;;52.30;31.33;;;2.20;99.90;;;;;;4994467;28;20046;-81
2022/01/31 04:46:00;;;;;;;50.20;27.67;;;1.90;99.90;;;;;;4993486;28;20624;-77
2022/01/31 04:48:28;;;;;;;53.92;30.45;;;1.80;99.90;;;;;;4993211;28;20053;-82
2022/01/31 04:50:55;;;;;;;49.28;28.48;;;1.60;99.90;;;;;;4993972;28;20594;-87
2022/01/31 04:53:23;;;;;;;40.58;23.55;;;1.30;99.90;;;;;;4992316;28;20046;-81
2022/01/31 04:55:51;;;;;;;52.28;29.48;;;1.60;99.90;;;;;;4994746;28;20066;-83
2022/01/31 04:58:22;;;;;;;47.38;26.60;;;1.40;99.90;;;;;;4994128;28;20042;-88
2022/01/31 05:00:50;;;;;;;44.97;24.53;;;1.40;99.90;;;;;;4993768;28;20068;-82
2022/01/31 05:03:20;;;;;;;21.80;12.10;;;1.70;99.90;;;;;;4992684;28;20045;-81
2022/01/31 05:05:48;;;;;;;24.02;13.73;;;2.60;99.70;;;;;;4994372;28;20038;-85
2022/01/31 05:08:17;;;;;;;43.05;22.10;;;3.00;97.10;;;;;;4992618;28;20061;-79
2022/01/31 05:10:47;;;;;;;23.55;13.57;;;2.70;99.90;;;;;;4993527;28;20046;-85
2022/01/31 05:13:16;;;;;;;23.95;15.57;;;2.70;99.80;;;;;;4997175;28;20578;-83
2022/01/31 05:15:44;;;;;;;19.30;10.65;;;2.90;98.20;;;;;;4997976;28;20062;-79
2022/01/31 05:18:12;;;;;;;26.70;15.48;;;3.70;92.40;;;;;;4996705;28;20046;-79
2022/01/31 05:20:40;;;;;;;27.42;16.60;;;3.40;93.70;;;;;;4998133;28;20117;-85
2022/01/31 05:23:08;;;;;;;20.13;10.40;;;3.30;94.60;;;;;;4996607;28;20042;-76
2022/01/31 05:25:36;;;;;;;27.23;15.13;;;3.60;91.70;;;;;;4996119;28;20039;-81
2022/01/31 05:28:04;;;;;;;21.15;12.60;;;3.70;93.90;;;;;;4996065;28;20056;-80
2022/01/31 05:30:32;;;;;;;15.55;10.00;;;3.70;91.90;;;;;;4996119;28;20045;-79
2022/01/31 05:32:59;;;;;;;24.13;12.88;;;3.90;92.20;;;;;;4995743;28;20041;-83
2022/01/31 05:35:27;;;;;;;19.92;12.05;;;4.00;91.80;;;;;;4995756;28;20050;-81
2022/01/31 05:37:54;;;;;;;33.38;18.23;;;4.00;90.20;;;;;;4997386;28;20390;-78
2022/01/31 05:40:21;;;;;;;40.70;23.20;;;3.70;93.00;;;;;;4996054;28;20042;-76
2022/01/31 05:42:49;;;;;;;36.95;21.98;;;2.70;98.20;;;;;;4994456;28;20046;-79
2022/01/31 05:45:16;;;;;;;39.75;23.23;;;2.20;99.90;;;;;;4995267;28;20467;-80
2022/01/31 05:47:44;;;;;;;40.50;23.80;;;2.00;99.90;;;;;;4995961;28;20045;-84
2022/01/31 05:50:11;;;;;;;39.92;24.52;;;1.80;99.90;;;;;;4996784;28;20054;-85
2022/01/31 05:52:39;;;;;;;42.60;24.50;;;1.40;99.90;;;;;;4996663;28;20046;-85
2022/01/31 05:55:06;;;;;;;40.00;23.92;;;1.30;99.90;;;;;;4978701;28;20046;-80
2022/01/31 05:57:34;;;;;;;42.10;24.35;;;1.10;99.90;;;;;;4995279;28;20081;-83
2022/01/31 06:00:07;;;;;;;42.75;25.25;;;1.00;99.90;;;;;;4995415;28;20066;-83
2022/01/31 06:02:35;;;;;;;40.20;23.27;;;1.00;99.90;;;;;;4995478;28;20070;-81
2022/01/31 06:05:03;;;;;;;34.03;21.83;;;0.70;99.90;;;;;;4995782;28;20060;-84
2022/01/31 06:07:31;;;;;;;42.70;22.88;;;0.70;99.90;;;;;;4994871;28;20046;-82
2022/01/31 06:09:59;;;;;;;34.88;21.77;;;1.00;99.90;;;;;;4995372;28;20049;-78
2022/01/31 06:12:27;;;;;;;27.45;16.08;;;1.00;99.90;;;;;;4994735;28;20050;-83
2022/01/31 06:14:54;;;;;;;24.55;17.33;;;1.30;99.90;;;;;;4995082;28;20114;-83
2022/01/31 06:17:21;;;;;;;39.10;20.42;;;1.50;99.90;;;;;;4995490;28;20125;-82
2022/01/31 06:19:49;;;;;;;36.88;20.92;;;1.50;99.90;;;;;;4993947;28;20152;-82
2022/01/31 06:22:16;;;;;;;27.23;17.42;;;1.50;99.90;;;;;;4992550;28;20038;-79
2022/01/31 06:24:43;;;;;;;31.65;19.30;;;1.50;99.90;;;;;;4994506;28;20045;-79
2022/01/31 06:27:10;;;;;;;31.52;19.23;;;1.50;99.90;;;;;;4994625;28;20049;-83
2022/01/31 06:29:38;;;;;;;32.00;19.50;;;1.60;99.90;;;;;;4994620;28;20054;-79
2022/01/31 06:32:05;;;;;;;29.17;17.90;;;1.50;99.90;;;;;;4995756;28;20038;-83
2022/01/31 06:34:32;;;;;;;32.67;19.25;;;1.40;99.90;;;;;;4995123;28;20039;-82
2022/01/31 06:37:02;;;;;;;32.08;19.33;;;1.60;99.90;;;;;;4996027;28;20046;-84
2022/01/31 06:39:30;;;;;;;29.52;18.95;;;1.80;99.90;;;;;;4995322;28;20050;-85
2022/01/31 06:41:58;;;;;;;34.15;19.50;;;1.80;99.90;;;;;;4996505;28;20053;-87
2022/01/31 06:44:26;;;;;;;36.42;20.30;;;1.70;99.90;;;;;;4996536;28;20046;-79
2022/01/31 06:46:54;;;;;;;31.27;19.58;;;1.70;99.90;;;;;;4997409;28;20057;-81
2022/01/31 06:49:21;;;;;;;28.15;18.10;;;1.70;99.90;;;;;;4995452;28;20039;-81
2022/01/31 06:51:48;;;;;;;34.70;18.70;;;1.70;99.90;;;;;;4995462;28;20057;-79
2022/01/31 06:54:15;;;;;;;28.33;17.98;;;1.70;99.90;;;;;;4996404;28;20406;-86
2022/01/31 06:56:44;;;;;;;31.80;19.83;;;1.80;99.90;;;;;;4996131;28;20045;-82
2022/01/31 06:59:12;;;;;;;31.00;18.42;;;1.90;99.90;;;;;;4995973;28;20073;-83
2022/01/31 07:01:39;;;;;;;28.73;19.23;;;2.10;99.90;;;;;;4995855;28;20042;-84
2022/01/31 07:04:06;;;;;;;32.67;21.60;;;2.20;99.90;;;;;;4995740;28;20046;-84
2022/01/31 07:06:34;;;;;;;45.30;22.25;;;2.00;99.90;;;;;;4977137;28;20556;-85
2022/01/31 07:09:02;;;;;;;36.95;22.75;;;1.90;99.90;;;;;;4977384;28;20060;-81
2022/01/31 07:11:34;;;;;;;44.42;25.50;;;2.20;99.90;;;;;;4993966;28;20035;-84
2022/01/31 07:16:48;;;;;;;47.53;27.70;;;2.20;99.90;;;;;;4994619;28;20482;-80
2022/01/31 07:19:15;;;;;;;50.45;27.40;;;2.20;99.90;;;;;;4994071;28;20038;-80
2022/01/31 07:21:49;;;;;;;47.03;26.40;;;2.20;99.90;;;;;;4985771;28;20053;-79
2022/01/31 07:26:45;;;;;;;49.33;28.50;;;2.60;99.90;;;;;;4985140;28;20043;-77
2022/01/31 07:29:13;;;;;;;52.47;28.35;;;2.60;99.90;;;;;;4976911;28;20039;-75
2022/01/31 07:31:42;;;;;;;53.03;27.55;;;2.70;99.90;;;;;;5004612;28;20042;-74
2022/01/31 07:34:09;;;;;;;54.97;29.48;;;2.90;99.90;;;;;;4992624;28;20437;-74
2022/01/31 07:36:37;;;;;;;46.60;29.58;;;2.90;99.90;;;;;;4992360;28;20042;-80
2022/01/31 07:39:05;;;;;;;59.58;34.78;;;3.20;99.90;;;;;;4993142;28;20089;-72
2022/01/31 07:41:32;;;;;;;46.72;26.15;;;3.80;99.90;;;;;;4992677;28;20042;-76
2022/01/31 07:44:00;;;;;;;43.95;25.30;;;3.90;99.90;;;;;;4993313;28;20042;-75
2022/01/31 07:46:27;;;;;;;88.90;44.33;;;3.90;99.90;;;;;;4992470;28;20072;-79
2022/01/31 07:48:55;;;;;;;36.28;23.13;;;4.00;99.90;;;;;;4976395;28;20053;-78
2022/01/31 07:51:22;;;;;;;42.30;23.02;;;4.00;99.90;;;;;;4992791;28;20045;-77
2022/01/31 07:53:50;;;;;;;44.90;24.45;;;3.80;99.90;;;;;;4992428;28;20042;-81
2022/01/31 07:56:18;;;;;;;46.75;24.02;;;4.00;99.90;;;;;;4975029;28;20501;-79
2022/01/31 07:58:45;;;;;;;37.38;24.25;;;4.10;99.90;;;;;;4992902;28;20053;-74
2022/01/31 08:01:12;;;;;;;41.60;24.98;;;4.10;99.90;;;;;;4992652;28;20050;-74
2022/01/31 08:03:40;;;;;;;44.40;25.73;;;4.20;99.90;;;;;;4993649;28;20051;-78
2022/01/31 08:06:07;;;;;;;43.03;25.90;;;4.50;99.90;;;;;;4992927;28;20054;-82
2022/01/31 08:08:35;;;;;;;43.22;25.15;;;4.20;99.90;;;;;;4992625;28;20046;-80
2022/01/31 08:11:04;;;;;;;52.25;31.30;;;4.30;99.90;;;;;;4992458;28;20038;-77
2022/01/31 08:13:33;;;;;;;76.65;46.63;;;5.00;99.90;;;;;;4992562;28;20049;-76
2022/01/31 08:16:09;;;;;;;89.75;48.45;;;5.70;99.90;;;;;;4992251;28;20042;-81
2022/01/31 08:18:44;;;;;;;32.90;21.40;;;6.00;99.90;;;;;;4992784;28;20042;-81
2022/01/31 08:21:13;;;;;;;33.05;19.70;;;5.40;98.40;;;;;;4993285;28;20049;-80
2022/01/31 08:23:42;;;;;;;26.73;17.48;;;5.20;98.40;;;;;;4993470;28;20050;-81
2022/01/31 08:26:14;;;;;;;34.30;18.27;;;5.30;98.60;;;;;;4993385;28;20106;-82
2022/01/31 08:28:46;;;;;;;23.90;16.83;;;5.50;97.50;;;;;;4992972;28;20053;-87
2022/01/31 08:31:22;;;;;;;28.65;16.88;;;5.70;97.50;;;;;;4992722;28;20046;-79
2022/01/31 08:34:05;;;;;;;27.15;16.70;;;5.90;95.90;;;;;;4975100;28;20494;-84
2022/01/31 08:36:36;;;;;;;37.47;16.77;;;6.00;94.00;;;;;;4991685;28;20046;-82
2022/01/31 08:39:18;;;;;;;26.75;16.65;;;6.20;93.10;;;;;;4992404;28;20045;-84
2022/01/31 08:41:51;;;;;;;27.02;16.90;;;6.30;92.60;;;;;;4992400;28;20142;-88
2022/01/31 08:44:22;;;;;;;25.50;17.40;;;6.30;91.00;;;;;;4992357;28;20046;-83
2022/01/31 08:46:51;;;;;;;26.10;15.10;;;6.10;90.90;;;;;;4991989;28;20042;-82
2022/01/31 08:49:19;;;;;;;26.90;15.85;;;6.20;89.50;;;;;;4992538;28;20054;-81
2022/01/31 08:51:46;;;;;;;27.38;16.08;;;6.40;89.70;;;;;;4993424;28;20049;-81
2022/01/31 08:54:14;;;;;;;28.13;15.48;;;6.50;86.10;;;;;;4992273;28;20047;-76
2022/01/31 08:56:45;;;;;;;24.00;16.60;;;6.50;85.80;;;;;;4992755;28;20061;-82
2022/01/31 08:59:16;;;;;;;26.90;17.08;;;6.70;86.00;;;;;;4992931;28;20053;-80
2022/01/31 09:01:52;;;;;;;30.98;18.73;;;6.80;86.90;;;;;;4992785;28;20065;-86
2022/01/31 09:07:06;;;;;;;33.47;19.50;;;6.70;86.60;;;;;;4992149;28;20043;-87
2022/01/31 09:09:33;;;;;;;29.38;18.90;;;6.90;87.30;;;;;;4993261;28;20424;-89
2022/01/31 09:12:06;;;;;;;33.95;18.42;;;7.10;86.20;;;;;;4992507;28;20062;-83
2022/01/31 09:14:35;;;;;;;26.17;17.15;;;6.90;86.90;;;;;;4993111;28;20054;-86
2022/01/31 09:17:02;;;;;;;25.42;16.23;;;6.90;86.00;;;;;;4993257;28;20394;-82
2022/01/31 09:19:30;;;;;;;23.73;15.20;;;6.90;84.30;;;;;;4992695;28;20050;-85
2022/01/31 09:21:57;;;;;;;26.08;15.18;;;7.30;84.10;;;;;;4992139;28;20042;-84
2022/01/31 09:24:24;;;;;;;24.83;14.32;;;7.50;80.40;;;;;;4991791;28;20042;-79
2022/01/31 09:26:51;;;;;;;23.75;13.20;;;7.40;79.70;;;;;;4991372;28;20046;-79
2022/01/31 09:29:19;;;;;;;22.77;13.50;;;7.30;79.00;;;;;;4991641;28;20072;-78
2022/01/31 09:31:46;;;;;;;22.92;13.07;;;7.40;77.30;;;;;;4991708;28;20037;-82
2022/01/31 09:34:14;;;;;;;23.25;12.00;;;7.60;76.80;;;;;;4991455;28;20589;-84
2022/01/31 09:36:41;;;;;;;34.28;12.23;;;7.80;75.50;;;;;;4991309;28;20038;-82
2022/01/31 09:39:08;;;;;;;24.10;11.38;;;7.90;73.70;;;;;;4991654;28;20046;-82
2022/01/31 09:41:40;;;;;;;18.02;11.70;;;8.10;71.80;;;;;;4991343;28;20045;-82
2022/01/31 09:44:20;;;;;;;21.35;10.32;;;8.10;71.40;;;;;;4991748;28;20398;-83
2022/01/31 09:49:20;;;;;;;18.95;10.65;;;8.10;69.90;;;;;;4991955;28;20514;-81
2022/01/31 09:51:49;;;;;;;18.75;10.90;;;8.00;69.60;;;;;;4991281;28;20043;-82
2022/01/31 09:54:16;;;;;;;16.85;10.23;;;8.30;68.60;;;;;;4991969;28;20405;-79
2022/01/31 09:56:46;;;;;;;15.70;10.15;;;8.60;67.40;;;;;;4990673;28;20039;-80
2022/01/31 09:59:16;;;;;;;13.20;9.88;;;8.60;66.90;;;;;;4993913;28;20053;-76
2022/01/31 10:01:47;;;;;;;14.32;9.55;;;8.60;65.80;;;;;;4994751;28;20030;-76
2022/01/31 10:04:20;;;;;;;13.65;8.88;;;8.50;65.80;;;;;;4978083;28;20419;-75
2022/01/31 10:06:50;;;;;;;12.35;8.27;;;8.90;63.50;;;;;;4994586;28;20031;-86
2022/01/31 10:09:22;;;;;;;12.10;8.43;;;9.20;62.90;;;;;;4995019;28;20498;-82
2022/01/31 10:12:18;;;;;;;12.88;8.10;;;9.30;61.20;;;;;;4994288;28;20034;-79
2022/01/31 10:17:38;;;;;;;41.33;25.15;;;10.10;62.60;;;;;;4994634;28;20046;-77
2022/01/31 10:20:08;;;;;;;15.75;9.73;;;10.20;63.30;;;;;;4994677;28;20137;-78
2022/01/31 10:22:44;;;;;;;10.70;7.10;;;10.10;59.10;;;;;;4977171;28;20038;-78
2022/01/31 10:25:13;;;;;;;9.15;6.22;;;10.20;57.40;;;;;;4994562;28;20053;-78
2022/01/31 10:28:00;;;;;;;12.50;6.85;;;10.20;56.40;;;;;;4974727;28;20066;-80
2022/01/31 10:30:30;;;;;;;10.25;6.40;;;10.20;56.80;;;;;;4975433;28;20047;-80
2022/01/31 10:32:58;;;;;;;15.07;7.13;;;10.30;56.20;;;;;;4974797;28;20047;-78
2022/01/31 10:35:34;;;;;;;11.77;6.65;;;10.20;55.50;;;;;;4974829;28;20434;-79
2022/01/31 10:38:09;;;;;;;11.27;6.38;;;10.00;55.70;;;;;;4974465;28;20043;-79
2022/01/31 10:52:11;;;;;;;9.57;5.78;;;10.40;54.90;;;;;;4952728;29;20051;-78
2022/01/31 10:54:41;;;;;;;10.05;5.63;;;10.40;54.10;;;;;;4986978;28;20066;-79
2022/01/31 10:57:19;;;;;;;11.20;6.20;;;10.70;53.70;;;;;;4992815;28;20046;-81
2022/01/31 10:59:49;;;;;;;13.55;6.55;;;10.90;53.90;;;;;;4990613;28;20035;-80
2022/01/31 11:02:21;;;;;;;14.65;6.75;;;10.50;55.00;;;;;;4992546;28;20139;-82
2022/01/31 11:04:51;;;;;;;8.93;6.28;;;9.90;55.60;;;;;;4993072;28;20065;-76
2022/01/31 11:07:21;;;;;;;8.80;6.00;;;10.30;55.50;;;;;;4992766;28;20049;-79
2022/01/31 11:09:50;;;;;;;10.80;6.13;;;10.50;55.00;;;;;;4992215;28;20548;-81
2022/01/31 11:12:23;;;;;;;7.75;4.90;;;10.80;54.40;;;;;;4992632;28;20042;-84
2022/01/31 11:14:53;;;;;;;8.75;5.18;;;11.60;52.50;;;;;;4989517;28;20066;-79
2022/01/31 11:17:24;;;;;;;8.80;4.55;;;11.90;51.30;;;;;;4991968;28;20473;-81
2022/01/31 11:19:58;;;;;;;7.03;4.07;;;12.20;50.90;;;;;;4992137;28;20768;-79
2022/01/31 11:22:34;;;;;;;9.02;4.70;;;12.80;49.20;;;;;;4993182;28;20038;-79
2022/01/31 11:25:19;;;;;;;8.07;3.80;;;13.30;48.20;;;;;;4993713;28;20109;-82
2022/01/31 11:27:59;;;;;;;8.80;4.10;;;13.70;46.70;;;;;;4993285;28;20042;-82
2022/01/31 11:30:26;;;;;;;10.25;3.83;;;14.40;46.50;;;;;;4976442;28;20062;-80
2022/01/31 11:32:55;;;;;;;8.18;3.72;;;14.40;46.80;;;;;;4992647;28;20107;-79
2022/01/31 11:35:24;;;;;;;9.27;4.53;;;14.80;46.30;;;;;;4975696;28;20042;-82
2022/01/31 11:37:52;;;;;;;188.05;141.73;;;15.00;45.70;;;;;;4993268;28;20046;-78
2022/01/31 11:40:22;;;;;;;12.23;4.55;;;15.00;45.10;;;;;;4992536;28;20038;-81
2022/01/31 11:42:54;;;;;;;7.30;3.90;;;13.30;46.70;;;;;;4975689;28;20088;-82
2022/01/31 11:45:26;;;;;;;12.57;5.07;;;12.90;47.60;;;;;;4993012;28;20042;-83
2022/01/31 11:47:56;;;;;;;8.10;4.28;;;12.50;48.10;;;;;;4993323;28;20042;-82
2022/01/31 11:50:24;;;;;;;7.82;4.20;;;12.10;48.30;;;;;;4993027;28;20070;-81
2022/01/31 11:52:59;;;;;;;8.93;4.03;;;12.30;48.50;;;;;;4992526;28;20058;-83
2022/01/31 11:55:35;;;;;;;6.70;4.38;;;12.80;48.20;;;;;;4992588;28;20054;-83
2022/01/31 11:58:07;;;;;;;7.00;4.40;;;12.10;48.50;;;;;;4992650;28;20046;-82
2022/01/31 12:00:38;;;;;;;11.15;5.43;;;11.90;48.50;;;;;;4993364;28;20046;-84
2022/01/31 12:03:11;;;;;;;8.60;4.47;;;12.10;48.90;;;;;;4993151;28;20492;-84
2022/01/31 12:05:40;;;;;;;10.18;4.40;;;12.10;48.70;;;;;;4992732;28;20057;-84
2022/01/31 12:08:16;;;;;;;7.65;4.53;;;12.30;47.80;;;;;;5007570;28;20038;-83
2022/01/31 12:11:10;;;;;;;7.38;3.97;;;12.20;48.20;;;;;;4992152;28;20049;-80
2022/01/31 12:13:50;;;;;;;6.90;4.30;;;12.20;48.00;;;;;;4992392;28;20046;-86
2022/01/31 12:17:07;;;;;;;8.50;4.30;;;12.60;46.60;;;;;;4975241;28;20057;-84
2022/01/31 12:22:28;;;;;;;6.60;4.00;;;12.00;47.10;;;;;;4991875;28;20042;-84
2022/01/31 12:24:56;;;;;;;7.82;4.30;;;12.00;47.00;;;;;;4992417;28;20046;-84
2022/01/31 12:27:30;;;;;;;7.40;3.92;;;12.10;47.30;;;;;;4992462;28;20058;-79
2022/01/31 12:29:59;;;;;;;6.72;4.20;;;12.40;46.50;;;;;;4975227;28;20093;-79
2022/01/31 12:32:35;;;;;;;6.40;3.67;;;12.30;47.10;;;;;;4992320;28;20387;-81
2022/01/31 12:35:08;;;;;;;8.80;3.55;;;12.20;46.50;;;;;;4991484;28;20089;-78
2022/01/31 12:37:39;;;;;;;8.93;3.50;;;12.00;46.80;;;;;;4989726;28;20042;-81
2022/01/31 12:40:28;;;;;;;6.85;4.15;;;11.80;46.30;;;;;;4988343;28;20046;-83
2022/01/31 12:43:12;;;;;;;47.17;23.80;;;11.50;47.00;;;;;;4990101;28;20387;-79
2022/01/31 12:45:39;;;;;;;24.73;16.63;;;11.50;51.50;;;;;;4973325;28;20061;-81
2022/01/31 12:48:28;;;;;;;7.43;5.20;;;11.80;51.30;;;;;;4991188;28;20114;-88
2022/01/31 12:50:56;;;;;;;8.32;4.32;;;11.70;49.60;;;;;;4974262;28;20502;-82
2022/01/31 12:53:24;;;;;;;6.95;4.35;;;11.60;48.90;;;;;;4992414;28;20042;-82
2022/01/31 12:56:09;;;;;;;5.97;4.22;;;11.40;49.60;;;;;;4991835;28;20046;-84
2022/01/31 12:58:38;;;;;;;10.05;4.45;;;11.40;49.80;;;;;;4992142;28;20038;-86
2022/01/31 13:01:18;;;;;;;6.60;4.20;;;11.50;50.10;;;;;;4992000;28;20057;-79
2022/01/31 13:03:55;;;;;;;8.20;4.40;;;11.60;50.50;;;;;;4992676;28;20378;-77
2022/01/31 13:06:32;;;;;;;5.93;3.80;;;11.80;50.40;;;;;;4991193;28;20307;-78
2022/01/31 13:09:07;;;;;;;9.48;4.70;;;11.30;49.20;;;;;;4992476;28;20046;-86
2022/01/31 13:11:34;;;;;;;10.40;4.80;;;11.50;50.10;;;;;;4991665;28;20042;-75
2022/01/31 13:14:19;;;;;;;8.70;4.18;;;11.40;50.40;;;;;;4991545;28;20043;-76
2022/01/31 13:17:14;;;;;;;7.05;3.90;;;11.50;49.20;;;;;;4991342;28;20437;-75
2022/01/31 13:19:48;;;;;;;10.40;4.68;;;11.40;48.40;;;;;;4991526;28;20113;-81